createdAt,value
2022-10-11T00:00:00.127Z,100577.09
2022-10-11T00:02:38.224Z,100580.53
2022-10-11T00:05:17.002Z,100592.53
2022-10-11T00:07:54.710Z,100576.13
2022-10-11T00:10:35.125Z,100589.09
2022-10-11T00:13:13.100Z,100587.25
2022-10-11T00:15:50.900Z,100588.91
2022-10-11T00:18:29.043Z,100571.34
2022-10-11T00:21:10.413Z,100583.63
2022-10-11T00:23:49.703Z,100569.75
2022-10-11T00:26:28.550Z,100566.63
2022-10-11T00:29:07.211Z,100563.91
2022-10-11T00:31:45.845Z,100576.84
2022-10-11T00:34:24.800Z,100555.22
2022-10-11T00:37:03.211Z,100570.16
2022-10-11T00:39:41.150Z,100564.16
2022-10-11T00:42:19.326Z,100563.19
2022-10-11T00:45:31.435Z,100565.34
2022-10-11T00:48:18.687Z,100559.47
2022-10-11T00:50:59.769Z,100557.41
2022-10-11T00:53:38.733Z,100575.00
2022-10-11T00:56:38.855Z,100570.06
2022-10-11T00:59:23.256Z,100566.16
2022-10-11T01:02:02.839Z,100562.34
2022-10-11T01:04:42.796Z,100563.13
2022-10-11T01:07:21.924Z,100544.47
2022-10-11T01:09:59.910Z,100556.03
2022-10-11T01:12:52.951Z,100560.28
2022-10-11T01:15:45.817Z,100550.25
2022-10-11T01:19:08.019Z,100558.00
2022-10-11T01:22:21.598Z,100566.47
2022-10-11T01:25:17.753Z,100561.56
2022-10-11T01:28:10.469Z,100566.56
2022-10-11T01:30:49.063Z,100565.28
2022-10-11T01:33:43.811Z,100559.31
2022-10-11T01:36:27.937Z,100561.59
2022-10-11T01:39:26.154Z,100553.13
2022-10-11T01:42:07.711Z,100552.03
2022-10-11T01:44:49.157Z,100552.44
2022-10-11T01:47:27.324Z,100562.16
2022-10-11T01:50:08.117Z,100561.97
2022-10-11T01:52:47.646Z,100550.00
2022-10-11T01:55:39.503Z,100554.31
2022-10-11T01:58:29.511Z,100560.09
2022-10-11T02:01:26.056Z,100559.34
2022-10-11T02:04:27.347Z,100561.09
2022-10-11T02:07:09.334Z,100563.16
2022-10-11T02:09:52.543Z,100555.41
2022-10-11T02:12:44.659Z,100570.63
2022-10-11T02:15:26.866Z,100565.41
2022-10-11T02:18:10.143Z,100565.31
2022-10-11T02:20:50.496Z,100551.19
2022-10-11T02:23:42.559Z,100556.69
2022-10-11T02:26:23.494Z,100550.69
2022-10-11T02:29:05.943Z,100562.75
2022-10-11T02:31:45.986Z,100565.13
2022-10-11T02:34:27.709Z,100571.00
2022-10-11T02:37:25.557Z,100569.25
2022-10-11T02:40:25.575Z,100571.28
2022-10-11T02:43:06.605Z,100568.06
2022-10-11T02:45:51.086Z,100569.72
2022-10-11T02:48:29.531Z,100560.97
2022-10-11T02:51:13.404Z,100566.19
2022-10-11T02:53:51.112Z,100565.09
2022-10-11T02:56:28.063Z,100566.56
2022-10-11T02:59:06.578Z,100570.00
2022-10-11T03:01:44.944Z,100566.44
2022-10-11T03:04:23.947Z,100569.78
2022-10-11T03:07:02.159Z,100569.78
2022-10-11T03:09:40.820Z,100569.78
2022-10-11T03:12:18.597Z,100559.22
2022-10-11T03:14:56.820Z,100566.25
2022-10-11T03:17:36.876Z,100570.47
2022-10-11T03:20:14.835Z,100554.84
2022-10-11T03:22:53.016Z,100560.09
2022-10-11T03:25:31.234Z,100547.81
2022-10-11T03:28:09.506Z,100565.19
2022-10-11T03:30:51.725Z,100557.53
2022-10-11T03:33:30.646Z,100557.41
2022-10-11T03:36:09.262Z,100550.34
2022-10-11T03:38:47.061Z,100550.03
2022-10-11T03:41:25.322Z,100558.97
2022-10-11T03:44:03.760Z,100541.50
2022-10-11T03:46:41.731Z,100547.56
2022-10-11T03:49:20.046Z,100531.28
2022-10-11T03:51:58.106Z,100549.00
2022-10-11T03:54:36.519Z,100543.09
2022-10-11T03:57:14.962Z,100530.03
2022-10-11T03:59:52.730Z,100536.03
2022-10-11T04:02:32.208Z,100544.78
2022-10-11T04:05:12.780Z,100522.28
2022-10-11T04:07:50.806Z,100537.13
2022-10-11T04:10:28.803Z,100534.56
2022-10-11T04:13:07.533Z,100534.66
2022-10-11T04:15:45.202Z,100529.47
2022-10-11T04:18:23.366Z,100527.78
2022-10-11T04:21:01.596Z,100543.59
2022-10-11T04:23:39.781Z,100533.88
2022-10-11T04:26:17.982Z,100534.84
2022-10-11T04:28:56.322Z,100542.91
2022-10-11T04:31:34.391Z,100547.44
2022-10-11T04:34:12.639Z,100540.84
2022-10-11T04:36:50.804Z,100546.16
2022-10-11T04:39:29.080Z,100542.16
2022-10-11T04:42:07.247Z,100542.31
2022-10-11T04:44:45.475Z,100546.06
2022-10-11T04:47:24.647Z,100543.31
2022-10-11T04:50:04.708Z,100529.56
2022-10-11T04:52:43.791Z,100532.06
2022-10-11T04:55:22.219Z,100536.06
2022-10-11T04:58:01.024Z,100523.41
2022-10-11T05:00:39.523Z,100533.47
2022-10-11T05:03:17.841Z,100543.19
2022-10-11T05:05:54.826Z,100524.56
2022-10-11T05:08:33.864Z,100533.94
2022-10-11T05:11:15.969Z,100532.72
2022-10-11T05:13:53.874Z,100529.59
2022-10-11T05:16:32.100Z,100536.13
2022-10-11T05:19:10.540Z,100528.25
2022-10-11T05:21:48.688Z,100537.78
2022-10-11T05:24:26.666Z,100534.41
2022-10-11T05:27:04.861Z,100531.00
2022-10-11T05:29:43.578Z,100522.28
2022-10-11T05:32:24.568Z,100528.53
2022-10-11T05:35:05.064Z,100523.91
2022-10-11T05:37:44.134Z,100518.78
2022-10-11T05:40:22.230Z,100518.88
2022-10-11T05:42:59.395Z,100519.88
2022-10-11T05:45:42.157Z,100522.69
2022-10-11T05:48:20.370Z,100499.56
2022-10-11T05:51:03.384Z,100507.00
2022-10-11T05:53:41.328Z,100503.84
2022-10-11T05:56:24.286Z,100517.16
2022-10-11T05:59:02.777Z,100502.63
2022-10-11T06:01:40.848Z,100513.84
2022-10-11T06:04:19.207Z,100510.78
2022-10-11T06:06:57.647Z,100500.75
2022-10-11T06:09:35.967Z,100506.97
2022-10-11T06:12:13.524Z,100503.22
2022-10-11T06:15:10.877Z,100497.75
2022-10-11T06:18:05.772Z,100485.47
2022-10-11T06:21:01.320Z,100491.19
2022-10-11T06:23:59.985Z,100482.94
2022-10-11T06:26:53.626Z,100479.25
2022-10-11T06:29:49.891Z,100479.75
2022-10-11T06:32:45.393Z,100466.72
2022-10-11T06:35:40.495Z,100472.75
2022-10-11T06:38:47.686Z,100480.25
2022-10-11T06:41:43.459Z,100470.47
2022-10-11T06:44:35.392Z,100469.56
2022-10-11T06:47:27.307Z,100457.94
2022-10-11T06:50:47.164Z,100468.19
2022-10-11T06:53:19.803Z,100460.28
2022-10-11T06:56:18.392Z,100468.88
2022-10-11T06:59:16.392Z,100482.09
2022-10-11T07:02:17.470Z,100481.41
2022-10-11T07:05:10.787Z,100480.34
2022-10-11T07:08:06.294Z,100483.47
2022-10-11T07:11:06.224Z,100487.75
2022-10-11T07:14:04.577Z,100497.34
2022-10-11T07:17:05.760Z,100483.06
2022-10-11T07:20:00.646Z,100485.53
2022-10-11T07:23:01.898Z,100484.81
2022-10-11T07:26:07.713Z,100481.59
2022-10-11T07:28:59.797Z,100482.78
2022-10-11T07:31:51.628Z,100478.94
2022-10-11T07:34:42.810Z,100468.88
2022-10-11T07:37:38.077Z,100473.53
2022-10-11T07:40:34.693Z,100464.84
2022-10-11T07:43:26.811Z,100460.25
2022-10-11T07:46:18.445Z,100463.63
2022-10-11T07:49:14.013Z,100458.38
2022-10-11T07:52:06.285Z,100459.13
2022-10-11T07:55:16.205Z,100468.34
2022-10-11T07:58:11.926Z,100453.59
2022-10-11T08:01:12.412Z,100466.22
2022-10-11T08:04:13.533Z,100452.34
2022-10-11T08:07:24.489Z,100453.16
2022-10-11T08:10:01.388Z,100443.84
2022-10-11T08:13:05.539Z,100443.22
2022-10-11T08:15:57.022Z,100440.03
2022-10-11T08:18:57.037Z,100446.59
2022-10-11T08:22:00.405Z,100439.44
2022-10-11T08:24:54.911Z,100436.66
2022-10-11T08:27:47.113Z,100416.78
2022-10-11T08:30:38.981Z,100427.16
2022-10-11T08:33:46.174Z,100417.19
2022-10-11T08:36:24.268Z,100422.03
2022-10-11T08:39:25.767Z,100409.13
2022-10-11T08:42:56.910Z,100406.81
2022-10-11T08:46:06.469Z,100411.19
2022-10-11T08:49:00.868Z,100407.91
2022-10-11T08:52:12.079Z,100396.63
2022-10-11T08:55:19.367Z,100385.00
2022-10-11T08:58:19.632Z,100383.50
2022-10-11T09:01:27.343Z,100382.72
2022-10-11T09:04:06.283Z,100379.34
2022-10-11T09:07:04.890Z,100381.09
2022-10-11T09:10:01.849Z,100375.00
2022-10-11T09:12:40.614Z,100371.59
2022-10-11T09:15:26.899Z,100373.63
2022-10-11T09:18:06.899Z,100367.75
2022-10-11T09:21:02.929Z,100371.84
2022-10-11T09:24:08.571Z,100367.94
2022-10-11T09:26:47.221Z,100356.56
2022-10-11T09:29:37.780Z,100344.69
2022-10-11T09:32:15.251Z,100352.22
2022-10-11T09:34:43.576Z,100346.22
2022-10-11T09:37:16.624Z,100352.88
2022-10-11T09:39:59.451Z,100336.03
2022-10-11T09:42:27.020Z,100322.66
2022-10-11T09:44:55.273Z,100326.63
2022-10-11T09:47:28.028Z,100319.34
2022-10-11T09:50:14.307Z,100323.97
2022-10-11T09:52:53.843Z,100319.16
2022-10-11T09:55:33.612Z,100319.44
2022-10-11T09:58:01.688Z,100319.72
2022-10-11T10:00:33.679Z,100322.50
2022-10-11T10:03:04.090Z,100315.13
2022-10-11T10:05:38.560Z,100310.84
2022-10-11T10:08:09.288Z,100313.66
2022-10-11T10:10:42.965Z,100308.09
2022-10-11T10:13:22.199Z,100299.31
2022-10-11T10:15:56.595Z,100302.56
2022-10-11T10:18:37.728Z,100307.03
2022-10-11T10:21:10.370Z,100303.66
2022-10-11T10:23:38.050Z,100300.47
2022-10-11T10:26:19.013Z,100299.66
2022-10-11T10:29:09.553Z,100296.59
2022-10-11T10:31:55.403Z,100288.91
2022-10-11T10:34:36.612Z,100286.34
2022-10-11T10:37:26.503Z,100280.63
2022-10-11T10:40:04.941Z,100288.59
2022-10-11T10:42:33.251Z,100272.16
2022-10-11T10:45:00.772Z,100273.16
2022-10-11T10:47:55.660Z,100279.19
2022-10-11T10:50:42.074Z,100271.16
2022-10-11T10:53:19.390Z,100258.72
2022-10-11T10:55:57.849Z,100272.91
2022-10-11T10:58:31.151Z,100262.50
2022-10-11T11:01:11.461Z,100257.06
2022-10-11T11:04:05.497Z,100258.56
2022-10-11T11:06:51.179Z,100250.25
2022-10-11T11:09:56.296Z,100249.44
2022-10-11T11:12:26.424Z,100243.13
2022-10-11T11:15:08.741Z,100248.16
2022-10-11T11:18:15.828Z,100239.03
2022-10-11T11:21:35.863Z,100240.31
2022-10-11T11:24:45.149Z,100232.25
2022-10-11T11:27:31.044Z,100230.06
2022-10-11T11:30:04.564Z,100233.75
2022-10-11T11:32:48.131Z,100229.09
2022-10-11T11:35:27.597Z,100227.34
2022-10-11T11:38:06.543Z,100215.03
2022-10-11T11:40:41.190Z,100210.78
2022-10-11T11:43:22.177Z,100216.16
2022-10-11T11:45:49.860Z,100213.56
2022-10-11T11:48:24.872Z,100196.31
2022-10-11T11:50:58.394Z,100214.72
2022-10-11T11:53:45.427Z,100205.56
2022-10-11T11:56:30.437Z,100197.81
2022-10-11T11:59:16.889Z,100195.00
2022-10-11T12:01:56.509Z,100201.72
2022-10-11T12:04:32.370Z,100190.44
2022-10-11T12:07:21.627Z,100194.41
2022-10-11T12:09:54.531Z,100188.03
2022-10-11T12:12:37.477Z,100190.19
2022-10-11T12:15:26.951Z,100183.09
2022-10-11T12:17:57.460Z,100178.97
2022-10-11T12:20:27.890Z,100178.72
2022-10-11T12:23:05.319Z,100176.66
2022-10-11T12:25:38.183Z,100178.88
2022-10-11T12:28:43.127Z,100189.53
2022-10-11T12:31:26.275Z,100182.31
2022-10-11T12:34:08.760Z,100170.94
2022-10-11T12:36:40.741Z,100182.72
2022-10-11T12:39:43.153Z,100175.47
2022-10-11T12:42:26.792Z,100174.81
2022-10-11T12:45:13.132Z,100182.19
2022-10-11T12:47:49.502Z,100168.25
2022-10-11T12:50:39.808Z,100179.88
2022-10-11T12:53:17.738Z,100181.03
2022-10-11T12:55:51.415Z,100181.19
2022-10-11T12:58:29.485Z,100175.53
2022-10-11T13:00:58.171Z,100176.84
2022-10-11T13:03:29.770Z,100179.03
2022-10-11T13:06:02.059Z,100176.13
2022-10-11T13:08:34.674Z,100174.88
2022-10-11T13:11:09.223Z,100166.81
2022-10-11T13:13:44.127Z,100165.53
2022-10-11T13:16:18.702Z,100157.28
2022-10-11T13:18:50.011Z,100156.91
2022-10-11T13:21:36.256Z,100156.94
2022-10-11T13:24:10.965Z,100157.38
2022-10-11T13:26:39.084Z,100165.75
2022-10-11T13:29:18.661Z,100153.41
2022-10-11T13:31:48.205Z,100164.06
2022-10-11T13:34:19.712Z,100151.44
2022-10-11T13:36:55.522Z,100151.31
2022-10-11T13:39:31.196Z,100155.19
2022-10-11T13:42:00.296Z,100158.31
2022-10-11T13:44:28.095Z,100158.16
2022-10-11T13:46:55.701Z,100145.75
2022-10-11T13:49:40.412Z,100168.88
2022-10-11T13:52:23.272Z,100162.00
2022-10-11T13:55:02.954Z,100166.63
2022-10-11T13:57:49.539Z,100164.00
2022-10-11T14:00:19.894Z,100162.69
2022-10-11T14:03:00.837Z,100164.91
2022-10-11T14:05:41.502Z,100164.63
2022-10-11T14:08:35.781Z,100161.19
2022-10-11T14:11:06.486Z,100159.00
2022-10-11T14:13:44.965Z,100148.34
2022-10-11T14:16:20.501Z,100162.72
2022-10-11T14:19:10.007Z,100153.06
2022-10-11T14:21:45.339Z,100150.31
2022-10-11T14:24:14.654Z,100165.44
2022-10-11T14:26:49.628Z,100161.78
2022-10-11T14:29:33.011Z,100150.38
2022-10-11T14:32:06.701Z,100159.53
2022-10-11T14:34:35.616Z,100163.50
2022-10-11T14:37:03.302Z,100161.47
2022-10-11T14:39:32.463Z,100153.28
2022-10-11T14:42:00.659Z,100161.84
2022-10-11T14:44:28.616Z,100162.19
2022-10-11T14:46:56.076Z,100175.88
2022-10-11T14:49:26.434Z,100178.16
2022-10-11T14:51:55.614Z,100173.53
2022-10-11T14:54:25.030Z,100170.63
2022-10-11T14:56:54.945Z,100171.16
2022-10-11T14:59:27.113Z,100179.75
2022-10-11T15:01:54.835Z,100175.22
2022-10-11T15:04:24.700Z,100179.25
2022-10-11T15:06:53.959Z,100173.84
2022-10-11T15:09:22.560Z,100174.50
2022-10-11T15:11:51.716Z,100181.34
2022-10-11T15:14:19.124Z,100178.59
2022-10-11T15:16:46.563Z,100182.66
2022-10-11T15:19:20.081Z,100183.38
2022-10-11T15:21:47.891Z,100184.81
2022-10-11T15:24:15.604Z,100188.19
2022-10-11T15:26:44.077Z,100186.41
2022-10-11T15:29:13.120Z,100192.28
2022-10-11T15:31:40.672Z,100185.31
2022-10-11T15:34:08.683Z,100186.06
2022-10-11T15:36:36.141Z,100179.91
2022-10-11T15:39:04.074Z,100186.69
2022-10-11T15:41:31.525Z,100177.78
2022-10-11T15:43:59.128Z,100171.63
2022-10-11T15:46:28.752Z,100182.88
2022-10-11T15:48:56.272Z,100195.63
2022-10-11T15:51:23.695Z,100168.56
2022-10-11T15:53:51.208Z,100186.88
2022-10-11T15:56:19.776Z,100184.88
2022-10-11T15:58:47.229Z,100179.56
2022-10-11T16:01:20.206Z,100179.78
2022-10-11T16:03:49.214Z,100187.50
2022-10-11T16:06:18.024Z,100187.22
2022-10-11T16:08:46.168Z,100186.28
2022-10-11T16:11:13.980Z,100183.44
2022-10-11T16:13:41.581Z,100192.97
2022-10-11T16:16:10.462Z,100189.53
2022-10-11T16:18:38.954Z,100198.94
2022-10-11T16:21:09.618Z,100192.84
2022-10-11T16:23:38.298Z,100188.47
2022-10-11T16:26:09.224Z,100198.75
2022-10-11T16:28:38.104Z,100192.47
2022-10-11T16:31:20.948Z,100197.00
2022-10-11T16:33:48.856Z,100189.84
2022-10-11T16:36:32.088Z,100191.31
2022-10-11T16:39:01.521Z,100178.06
2022-10-11T16:41:29.057Z,100182.53
2022-10-11T16:43:56.601Z,100182.28
2022-10-11T16:46:24.647Z,100186.59
2022-10-11T16:48:55.849Z,100183.06
2022-10-11T16:51:24.421Z,100177.50
2022-10-11T16:53:53.311Z,100184.53
2022-10-11T16:56:22.732Z,100186.06
2022-10-11T16:58:54.259Z,100180.88
2022-10-11T17:01:22.769Z,100182.44
2022-10-11T17:03:51.157Z,100156.88
2022-10-11T17:06:19.625Z,100166.41
2022-10-11T17:08:47.255Z,100175.13
2022-10-11T17:11:16.800Z,100167.28
2022-10-11T17:13:45.505Z,100173.19
2022-10-11T17:16:13.028Z,100161.59
2022-10-11T17:18:40.440Z,100167.72
2022-10-11T17:21:12.224Z,100165.84
2022-10-11T17:23:40.613Z,100155.25
2022-10-11T17:26:11.601Z,100163.00
2022-10-11T17:28:39.275Z,100154.25
2022-10-11T17:31:08.430Z,100167.06
2022-10-11T17:33:36.498Z,100162.66
2022-10-11T17:36:13.973Z,100143.47
2022-10-11T17:38:41.559Z,100150.34
2022-10-11T17:41:10.227Z,100139.16
2022-10-11T17:43:37.963Z,100131.28
2022-10-11T17:46:06.477Z,100146.84
2022-10-11T17:48:36.742Z,100137.19
2022-10-11T17:51:11.967Z,100129.47
2022-10-11T17:53:39.673Z,100138.00
2022-10-11T17:56:12.243Z,100139.56
2022-10-11T17:58:39.882Z,100154.19
2022-10-11T18:01:10.391Z,100148.94
2022-10-11T18:03:38.526Z,100148.88
2022-10-11T18:06:11.833Z,100140.94
2022-10-11T18:08:40.927Z,100150.34
2022-10-11T18:11:14.302Z,100141.69
2022-10-11T18:13:46.202Z,100143.09
2022-10-11T18:16:15.454Z,100140.38
2022-10-11T18:18:43.691Z,100148.16
2022-10-11T18:21:11.271Z,100145.50
2022-10-11T18:23:39.234Z,100141.13
2022-10-11T18:26:14.749Z,100143.63
2022-10-11T18:28:43.414Z,100130.44
2022-10-11T18:31:14.709Z,100132.84
2022-10-11T18:33:45.615Z,100140.63
2022-10-11T18:36:15.804Z,100139.56
2022-10-11T18:38:47.088Z,100135.06
2022-10-11T18:41:17.114Z,100149.03
2022-10-11T18:43:49.683Z,100138.88
2022-10-11T18:46:17.749Z,100137.00
2022-10-11T18:48:47.525Z,100120.41
2022-10-11T18:51:18.627Z,100121.94
2022-10-11T18:53:47.095Z,100125.31
2022-10-11T18:56:16.441Z,100118.28
2022-10-11T18:58:44.740Z,100124.16
2022-10-11T19:01:16.068Z,100121.34
2022-10-11T19:03:47.843Z,100120.41
2022-10-11T19:06:21.552Z,100110.78
2022-10-11T19:08:54.845Z,100106.34
2022-10-11T19:11:25.414Z,100098.13
2022-10-11T19:14:01.788Z,100103.34
2022-10-11T19:16:30.294Z,100101.44
2022-10-11T19:18:58.629Z,100109.13
2022-10-11T19:21:26.862Z,100094.09
2022-10-11T19:23:55.822Z,100105.06
2022-10-11T19:26:27.533Z,100102.28
2022-10-11T19:29:00.925Z,100103.81
2022-10-11T19:31:29.263Z,100099.34
2022-10-11T19:33:58.058Z,100100.78
2022-10-11T19:36:26.444Z,100094.44
2022-10-11T19:38:57.260Z,100090.06
2022-10-11T19:41:26.238Z,100108.25
2022-10-11T19:43:55.348Z,100108.13
2022-10-11T19:46:44.503Z,100107.03
2022-10-11T19:49:12.183Z,100105.19
2022-10-11T19:51:39.685Z,100110.97
2022-10-11T19:54:10.416Z,100106.66
2022-10-11T19:56:38.036Z,100111.59
2022-10-11T19:59:08.649Z,100102.81
2022-10-11T20:01:37.143Z,100108.44
2022-10-11T20:04:07.431Z,100110.19
2022-10-11T20:06:38.583Z,100099.56
2022-10-11T20:11:55.042Z,100093.50
2022-10-11T20:14:22.674Z,100095.00
2022-10-11T20:16:50.873Z,100101.84
2022-10-11T20:19:18.892Z,100093.78
2022-10-11T20:21:47.452Z,100086.78
2022-10-11T20:24:15.614Z,100096.34
2022-10-11T20:26:43.186Z,100089.34
2022-10-11T20:29:10.800Z,100094.44
2022-10-11T20:31:40.703Z,100094.38
2022-10-11T20:34:10.136Z,100095.88
2022-10-11T20:36:37.941Z,100088.59
2022-10-11T20:39:06.433Z,100097.31
2022-10-11T20:41:45.047Z,100095.47
2022-10-11T20:44:15.870Z,100098.84
2022-10-11T20:46:43.418Z,100100.44
2022-10-11T20:49:12.502Z,100099.47
2022-10-11T20:51:41.955Z,100095.63
2022-10-11T20:54:12.072Z,100085.25
2022-10-11T20:56:40.383Z,100086.03
2022-10-11T20:59:08.509Z,100092.03
2022-10-11T21:01:39.594Z,100089.41
2022-10-11T21:04:10.513Z,100089.13
2022-10-11T21:06:37.995Z,100081.47
2022-10-11T21:09:05.440Z,100076.91
2022-10-11T21:11:33.771Z,100087.31
2022-10-11T21:14:04.606Z,100073.31
2022-10-11T21:16:33.426Z,100080.34
2022-10-11T21:19:01.988Z,100078.44
2022-10-11T21:21:30.546Z,100072.97
2022-10-11T21:24:02.302Z,100075.81
2022-10-11T21:26:31.117Z,100079.94
2022-10-11T21:29:01.384Z,100067.72
2022-10-11T21:31:33.730Z,100074.59
2022-10-11T21:34:02.485Z,100077.06
2022-10-11T21:36:30.009Z,100082.94
2022-10-11T21:38:57.766Z,100070.75
2022-10-11T21:41:29.121Z,100063.94
2022-10-11T21:43:56.873Z,100078.81
2022-10-11T21:49:17.085Z,100067.47
2022-10-11T21:51:45.265Z,100068.25
2022-10-11T21:54:12.930Z,100059.38
2022-10-11T21:56:40.605Z,100067.13
2022-10-11T21:59:11.267Z,100068.09
2022-10-11T22:01:41.880Z,100056.47
2022-10-11T22:04:10.406Z,100060.34
2022-10-11T22:06:38.894Z,100067.78
2022-10-11T22:09:08.394Z,100054.56
2022-10-11T22:11:36.387Z,100057.06
2022-10-11T22:14:04.150Z,100059.84
2022-10-11T22:16:33.755Z,100056.00
2022-10-11T22:19:01.306Z,100059.44
2022-10-11T22:21:28.883Z,100070.44
2022-10-11T22:23:59.639Z,100060.84
2022-10-11T22:26:30.929Z,100044.13
2022-10-11T22:29:00.368Z,100060.69
2022-10-11T22:31:29.429Z,100060.53
2022-10-11T22:34:00.635Z,100046.53
2022-10-11T22:36:30.654Z,100054.88
2022-10-11T22:38:58.761Z,100048.03
2022-10-11T22:41:26.453Z,100059.13
2022-10-11T22:43:53.966Z,100054.88
2022-10-11T22:46:21.385Z,100043.06
2022-10-11T22:48:51.509Z,100043.94
2022-10-11T22:51:21.402Z,100048.91
2022-10-11T22:53:48.954Z,100054.31
2022-10-11T22:56:16.437Z,100055.03
2022-10-11T22:58:43.990Z,100051.75
2022-10-11T23:01:13.871Z,100052.38
2022-10-11T23:03:41.712Z,100052.47
2022-10-11T23:06:09.643Z,100046.13
2022-10-11T23:08:37.108Z,100049.72
2022-10-11T23:11:06.899Z,100057.16
2022-10-11T23:13:35.016Z,100053.44
2022-10-11T23:16:07.257Z,100046.56
2022-10-11T23:18:34.847Z,100039.28
2022-10-11T23:21:02.914Z,100052.22
2022-10-11T23:23:30.766Z,100050.53
2022-10-11T23:26:06.724Z,100048.88
2022-10-11T23:28:35.154Z,100045.88
2022-10-11T23:31:14.386Z,100048.69
2022-10-11T23:33:41.953Z,100033.66
2022-10-11T23:36:21.296Z,100030.41
2022-10-11T23:38:56.888Z,100039.09
2022-10-11T23:41:26.937Z,100040.59
2022-10-11T23:43:54.723Z,100029.16
2022-10-11T23:46:22.566Z,100033.66
2022-10-11T23:48:49.977Z,100024.69
2022-10-11T23:51:17.440Z,100038.56
2022-10-11T23:53:44.887Z,100032.59
2022-10-11T23:56:12.695Z,100041.84
2022-10-11T23:58:40.476Z,100032.16
